sensor_id;sensor_type;location;lat;lon;timestamp;pressure;altitude;pressure_sealevel;temperature;humidity
21879;BME280;27908;42.708;23.278;2023-02-26T00:02:21;64214.59;;;14.15;57.63
21879;BME280;27908;42.708;23.278;2023-02-26T00:04:47;64196.09;;;14.12;57.70
21879;BME280;27908;42.708;23.278;2023-02-26T00:07:12;64209.44;;;14.15;56.37
21879;BME280;27908;42.708;23.278;2023-02-26T00:09:37;64237.56;;;14.05;57.65
21879;BME280;27908;42.708;23.278;2023-02-26T00:12:03;64181.22;;;14.10;56.05
21879;BME280;27908;42.708;23.278;2023-02-26T00:14:29;64209.41;;;14.10;56.68
21879;BME280;27908;42.708;23.278;2023-02-26T00:20:03;64179.09;;;14.03;55.19
21879;BME280;27908;42.708;23.278;2023-02-26T00:22:29;64208.34;;;14.07;54.89
21879;BME280;27908;42.708;23.278;2023-02-26T00:24:54;64218.09;;;14.09;56.04
21879;BME280;27908;42.708;23.278;2023-02-26T00:27:20;64220.13;;;14.06;56.44
21879;BME280;27908;42.708;23.278;2023-02-26T00:29:46;64190.88;;;14.02;56.49
21879;BME280;27908;42.708;23.278;2023-02-26T00:32:11;64242.66;;;14.03;57.13
21879;BME280;27908;42.708;23.278;2023-02-26T00:34:37;64200.59;;;14.02;56.86
21879;BME280;27908;42.708;23.278;2023-02-26T00:42:17;64212.97;;;14.06;55.30
21879;BME280;27908;42.708;23.278;2023-02-26T00:44:43;64234.06;;;14.14;54.53
21879;BME280;27908;42.708;23.278;2023-02-26T00:47:19;64188.91;;;14.10;53.75
21879;BME280;27908;42.708;23.278;2023-02-26T00:55:22;64210.41;;;14.09;54.84
21879;BME280;27908;42.708;23.278;2023-02-26T00:57:47;64188.75;;;13.95;55.57
21879;BME280;27908;42.708;23.278;2023-02-26T01:00:13;64339.94;;;13.95;53.57
21879;BME280;27908;42.708;23.278;2023-02-26T01:02:40;64193.25;;;13.85;54.09
21879;BME280;27908;42.708;23.278;2023-02-26T01:05:06;64154.81;;;13.87;54.79
21879;BME280;27908;42.708;23.278;2023-02-26T01:10:25;64183.06;;;13.92;54.50
21879;BME280;27908;42.708;23.278;2023-02-26T01:12:51;64166.63;;;13.89;54.33
21879;BME280;27908;42.708;23.278;2023-02-26T01:15:17;64199.78;;;13.77;53.89
21879;BME280;27908;42.708;23.278;2023-02-26T01:17:50;64184.97;;;13.80;54.45
21879;BME280;27908;42.708;23.278;2023-02-26T01:20:21;64270.41;;;13.71;54.75
21879;BME280;27908;42.708;23.278;2023-02-26T01:22:53;64174.09;;;13.69;54.79
21879;BME280;27908;42.708;23.278;2023-02-26T01:25:39;64130.03;;;13.69;55.18
21879;BME280;27908;42.708;23.278;2023-02-26T01:28:07;64086.00;;;13.22;54.59
21879;BME280;27908;42.708;23.278;2023-02-26T01:30:33;64165.84;;;13.64;53.88
21879;BME280;27908;42.708;23.278;2023-02-26T01:38:04;64167.41;;;13.68;53.92
21879;BME280;27908;42.708;23.278;2023-02-26T01:43:44;64212.28;;;13.93;52.11
21879;BME280;27908;42.708;23.278;2023-02-26T01:48:59;64171.94;;;14.04;50.73
21879;BME280;27908;42.708;23.278;2023-02-26T01:54:22;64244.81;;;14.12;49.74
21879;BME280;27908;42.708;23.278;2023-02-26T01:57:01;64231.00;;;14.14;49.20
21879;BME280;27908;42.708;23.278;2023-02-26T01:59:34;64174.06;;;14.13;49.85
21879;BME280;27908;42.708;23.278;2023-02-26T02:02:03;64233.13;;;14.23;50.02
21879;BME280;27908;42.708;23.278;2023-02-26T02:04:30;64206.88;;;14.15;50.22
21879;BME280;27908;42.708;23.278;2023-02-26T02:06:57;64222.19;;;14.05;50.34
21879;BME280;27908;42.708;23.278;2023-02-26T02:09:22;64207.34;;;14.08;50.38
21879;BME280;27908;42.708;23.278;2023-02-26T02:11:52;64222.69;;;14.06;50.15
21879;BME280;27908;42.708;23.278;2023-02-26T02:14:45;64211.38;;;14.02;50.30
21879;BME280;27908;42.708;23.278;2023-02-26T02:17:50;64181.47;;;13.88;50.92
21879;BME280;27908;42.708;23.278;2023-02-26T02:28:45;64128.56;;;13.75;51.29
21879;BME280;27908;42.708;23.278;2023-02-26T02:34:03;64161.84;;;13.75;50.62
21879;BME280;27908;42.708;23.278;2023-02-26T02:39:15;64171.06;;;13.74;51.03
21879;BME280;27908;42.708;23.278;2023-02-26T02:41:47;64146.03;;;13.79;51.27
21879;BME280;27908;42.708;23.278;2023-02-26T02:44:17;64121.88;;;13.73;50.15
21879;BME280;27908;42.708;23.278;2023-02-26T02:46:45;64164.97;;;13.78;50.04
21879;BME280;27908;42.708;23.278;2023-02-26T02:49:26;64149.69;;;13.85;50.12
21879;BME280;27908;42.708;23.278;2023-02-26T02:51:57;64136.88;;;13.85;50.82
21879;BME280;27908;42.708;23.278;2023-02-26T02:54:40;64158.66;;;13.62;50.14
21879;BME280;27908;42.708;23.278;2023-02-26T02:57:16;64138.63;;;13.57;49.82
21879;BME280;27908;42.708;23.278;2023-02-26T02:59:50;64172.78;;;13.90;50.12
21879;BME280;27908;42.708;23.278;2023-02-26T03:02:27;64148.63;;;13.82;49.69
21879;BME280;27908;42.708;23.278;2023-02-26T03:04:56;64162.56;;;13.92;49.07
21879;BME280;27908;42.708;23.278;2023-02-26T03:07:22;64163.94;;;13.77;49.75
21879;BME280;27908;42.708;23.278;2023-02-26T03:09:47;64116.78;;;13.76;50.23
21879;BME280;27908;42.708;23.278;2023-02-26T03:12:13;64138.78;;;13.72;49.53
21879;BME280;27908;42.708;23.278;2023-02-26T03:14:39;64173.78;;;13.88;49.11
21879;BME280;27908;42.708;23.278;2023-02-26T03:25:00;64179.88;;;13.82;49.28
21879;BME280;27908;42.708;23.278;2023-02-26T03:33:19;64165.47;;;13.78;49.46
21879;BME280;27908;42.708;23.278;2023-02-26T03:44:35;64099.69;;;13.57;50.33
21879;BME280;27908;42.708;23.278;2023-02-26T03:47:08;64137.03;;;13.51;50.32
21879;BME280;27908;42.708;23.278;2023-02-26T03:49:44;64119.09;;;13.51;50.95
21879;BME280;27908;42.708;23.278;2023-02-26T03:52:11;64132.91;;;13.50;51.46
21879;BME280;27908;42.708;23.278;2023-02-26T03:54:41;64145.13;;;13.44;51.97
21879;BME280;27908;42.708;23.278;2023-02-26T03:57:07;64114.34;;;13.37;51.18
21879;BME280;27908;42.708;23.278;2023-02-26T03:59:33;64139.91;;;13.34;51.70
21879;BME280;27908;42.708;23.278;2023-02-26T04:04:52;64114.88;;;13.40;52.89
21879;BME280;27908;42.708;23.278;2023-02-26T04:07:20;64106.13;;;13.36;52.85
21879;BME280;27908;42.708;23.278;2023-02-26T04:09:49;64087.59;;;13.26;52.84
21879;BME280;27908;42.708;23.278;2023-02-26T04:12:20;64059.97;;;13.26;53.50
21879;BME280;27908;42.708;23.278;2023-02-26T04:14:46;64119.31;;;13.24;52.44
21879;BME280;27908;42.708;23.278;2023-02-26T04:17:11;64075.31;;;13.26;52.61
21879;BME280;27908;42.708;23.278;2023-02-26T04:19:36;64051.16;;;13.18;52.31
21879;BME280;27908;42.708;23.278;2023-02-26T04:22:02;64056.31;;;13.20;52.59
21879;BME280;27908;42.708;23.278;2023-02-26T04:24:27;64124.97;;;13.27;52.79
21879;BME280;27908;42.708;23.278;2023-02-26T04:26:53;64063.44;;;13.17;53.77
21879;BME280;27908;42.708;23.278;2023-02-26T04:29:18;64097.81;;;13.26;51.74
21879;BME280;27908;42.708;23.278;2023-02-26T04:31:43;64058.06;;;13.42;51.66
21879;BME280;27908;42.708;23.278;2023-02-26T04:34:09;64084.22;;;13.45;51.86
21879;BME280;27908;42.708;23.278;2023-02-26T04:36:34;64118.38;;;13.31;51.91
21879;BME280;27908;42.708;23.278;2023-02-26T04:39:00;64100.97;;;13.31;52.36
21879;BME280;27908;42.708;23.278;2023-02-26T04:41:25;64086.59;;;13.30;51.48
21879;BME280;27908;42.708;23.278;2023-02-26T04:43:51;64146.56;;;13.36;50.61
21879;BME280;27908;42.708;23.278;2023-02-26T04:46:16;64087.88;;;13.53;50.57
21879;BME280;27908;42.708;23.278;2023-02-26T04:48:41;64072.94;;;12.95;50.58
21879;BME280;27908;42.708;23.278;2023-02-26T04:51:07;64160.06;;;13.51;50.38
21879;BME280;27908;42.708;23.278;2023-02-26T04:53:32;64141.75;;;13.63;50.04
21879;BME280;27908;42.708;23.278;2023-02-26T04:55:58;64105.94;;;13.65;49.92
21879;BME280;27908;42.708;23.278;2023-02-26T04:58:23;64105.84;;;13.58;50.35
21879;BME280;27908;42.708;23.278;2023-02-26T05:00:50;64079.03;;;13.40;50.97
21879;BME280;27908;42.708;23.278;2023-02-26T05:03:17;64098.06;;;13.48;49.56
21879;BME280;27908;42.708;23.278;2023-02-26T05:05:43;64102.28;;;13.59;48.72
21879;BME280;27908;42.708;23.278;2023-02-26T05:08:09;64167.91;;;13.66;48.22
21879;BME280;27908;42.708;23.278;2023-02-26T05:10:34;64138.78;;;13.75;48.17
21879;BME280;27908;42.708;23.278;2023-02-26T05:12:59;64157.72;;;13.71;48.57
21879;BME280;27908;42.708;23.278;2023-02-26T05:15:25;64180.84;;;13.76;47.42
21879;BME280;27908;42.708;23.278;2023-02-26T05:17:50;64230.94;;;14.11;46.33
21879;BME280;27908;42.708;23.278;2023-02-26T05:20:16;64235.19;;;14.25;46.48
21879;BME280;27908;42.708;23.278;2023-02-26T05:22:41;64239.81;;;14.24;45.69
21879;BME280;27908;42.708;23.278;2023-02-26T05:25:08;64249.72;;;14.39;45.48
21879;BME280;27908;42.708;23.278;2023-02-26T05:27:34;64270.19;;;14.36;45.47
21879;BME280;27908;42.708;23.278;2023-02-26T05:29:59;64245.53;;;14.32;45.48
21879;BME280;27908;42.708;23.278;2023-02-26T05:32:26;64272.22;;;14.33;45.85
21879;BME280;27908;42.708;23.278;2023-02-26T05:34:51;64226.53;;;14.31;45.44
21879;BME280;27908;42.708;23.278;2023-02-26T05:37:17;64213.16;;;14.26;46.21
21879;BME280;27908;42.708;23.278;2023-02-26T05:39:42;64249.69;;;14.36;45.70
21879;BME280;27908;42.708;23.278;2023-02-26T05:42:08;64200.28;;;14.21;46.10
21879;BME280;27908;42.708;23.278;2023-02-26T05:44:33;64217.25;;;14.25;46.18
21879;BME280;27908;42.708;23.278;2023-02-26T05:47:00;64249.69;;;14.36;45.17
21879;BME280;27908;42.708;23.278;2023-02-26T05:49:26;64278.50;;;14.44;45.15
21879;BME280;27908;42.708;23.278;2023-02-26T05:51:51;64242.59;;;14.44;45.38
21879;BME280;27908;42.708;23.278;2023-02-26T05:54:16;64269.72;;;14.38;45.22
21879;BME280;27908;42.708;23.278;2023-02-26T05:56:42;64265.66;;;14.44;44.52
21879;BME280;27908;42.708;23.278;2023-02-26T05:59:07;64232.88;;;14.47;44.79
21879;BME280;27908;42.708;23.278;2023-02-26T06:01:33;64239.63;;;14.56;45.09
21879;BME280;27908;42.708;23.278;2023-02-26T06:03:58;64278.66;;;14.61;43.76
21879;BME280;27908;42.708;23.278;2023-02-26T06:06:24;64291.53;;;14.64;44.29
21879;BME280;27908;42.708;23.278;2023-02-26T06:08:51;64259.75;;;14.68;43.01
21879;BME280;27908;42.708;23.278;2023-02-26T06:11:16;64327.19;;;14.88;43.20
21879;BME280;27908;42.708;23.278;2023-02-26T06:13:42;64354.56;;;15.04;42.68
21879;BME280;27908;42.708;23.278;2023-02-26T06:16:07;64364.34;;;15.06;42.52
21879;BME280;27908;42.708;23.278;2023-02-26T06:18:32;64359.28;;;15.11;42.26
21879;BME280;27908;42.708;23.278;2023-02-26T06:20:59;64363.34;;;15.08;41.51
21879;BME280;27908;42.708;23.278;2023-02-26T06:23:24;64338.38;;;15.23;42.25
21879;BME280;27908;42.708;23.278;2023-02-26T06:25:51;64406.13;;;15.22;42.42
21879;BME280;27908;42.708;23.278;2023-02-26T06:28:17;64371.75;;;15.23;42.26
21879;BME280;27908;42.708;23.278;2023-02-26T06:30:43;64390.72;;;15.19;42.17
21879;BME280;27908;42.708;23.278;2023-02-26T06:33:08;64375.34;;;15.24;42.00
21879;BME280;27908;42.708;23.278;2023-02-26T06:35:33;64376.09;;;15.47;41.31
21879;BME280;27908;42.708;23.278;2023-02-26T06:37:59;64408.31;;;15.31;41.44
21879;BME280;27908;42.708;23.278;2023-02-26T06:40:24;64433.72;;;15.55;41.12
21879;BME280;27908;42.708;23.278;2023-02-26T06:42:50;64452.31;;;15.63;40.48
21879;BME280;27908;42.708;23.278;2023-02-26T06:45:15;64418.88;;;15.61;41.05
21879;BME280;27908;42.708;23.278;2023-02-26T06:47:41;64433.34;;;15.67;40.57
21879;BME280;27908;42.708;23.278;2023-02-26T06:50:07;64443.69;;;15.74;40.19
21879;BME280;27908;42.708;23.278;2023-02-26T06:52:32;64441.66;;;15.77;39.97
21879;BME280;27908;42.708;23.278;2023-02-26T06:54:58;64460.72;;;15.78;39.57
21879;BME280;27908;42.708;23.278;2023-02-26T06:57:24;64440.66;;;15.79;38.62
21879;BME280;27908;42.708;23.278;2023-02-26T06:59:49;64536.97;;;15.92;38.73
21879;BME280;27908;42.708;23.278;2023-02-26T07:02:18;64489.69;;;15.96;39.52
21879;BME280;27908;42.708;23.278;2023-02-26T07:04:44;64511.78;;;15.95;39.04
21879;BME280;27908;42.708;23.278;2023-02-26T07:07:10;64524.78;;;16.07;38.38
21879;BME280;27908;42.708;23.278;2023-02-26T07:09:35;64534.56;;;16.09;38.18
21879;BME280;27908;42.708;23.278;2023-02-26T07:12:01;64540.16;;;16.02;39.48
21879;BME280;27908;42.708;23.278;2023-02-26T07:14:26;64492.91;;;16.09;38.78
21879;BME280;27908;42.708;23.278;2023-02-26T07:16:52;64494.47;;;16.10;39.42
21879;BME280;27908;42.708;23.278;2023-02-26T07:19:17;64509.41;;;16.12;39.77
21879;BME280;27908;42.708;23.278;2023-02-26T07:21:42;64515.09;;;16.15;39.61
21879;BME280;27908;42.708;23.278;2023-02-26T07:24:08;64523.91;;;16.19;39.73
21879;BME280;27908;42.708;23.278;2023-02-26T07:26:33;64535.78;;;16.23;40.43
21879;BME280;27908;42.708;23.278;2023-02-26T07:28:59;64579.03;;;16.27;39.83
21879;BME280;27908;42.708;23.278;2023-02-26T07:31:24;64566.09;;;16.20;39.90
21879;BME280;27908;42.708;23.278;2023-02-26T07:33:50;64568.84;;;16.37;39.42
21879;BME280;27908;42.708;23.278;2023-02-26T07:36:15;64561.19;;;16.42;39.68
21879;BME280;27908;42.708;23.278;2023-02-26T07:38:41;64570.31;;;16.29;39.72
21879;BME280;27908;42.708;23.278;2023-02-26T07:41:06;64573.03;;;16.41;40.02
21879;BME280;27908;42.708;23.278;2023-02-26T07:43:31;64575.00;;;16.36;40.11
21879;BME280;27908;42.708;23.278;2023-02-26T07:45:57;64581.09;;;16.27;39.49
21879;BME280;27908;42.708;23.278;2023-02-26T07:48:22;64540.44;;;16.27;39.23
21879;BME280;27908;42.708;23.278;2023-02-26T07:50:51;64547.31;;;16.46;39.65
21879;BME280;27908;42.708;23.278;2023-02-26T07:53:17;64537.50;;;16.41;39.24
21879;BME280;27908;42.708;23.278;2023-02-26T07:55:42;64586.50;;;16.51;39.50
21879;BME280;27908;42.708;23.278;2023-02-26T07:58:08;64643.19;;;16.56;39.18
21879;BME280;27908;42.708;23.278;2023-02-26T08:00:33;64580.94;;;16.61;38.89
21879;BME280;27908;42.708;23.278;2023-02-26T08:02:58;64594.94;;;16.69;39.75
21879;BME280;27908;42.708;23.278;2023-02-26T08:05:24;64599.09;;;16.73;39.32
21879;BME280;27908;42.708;23.278;2023-02-26T08:07:49;64661.88;;;16.69;38.12
21879;BME280;27908;42.708;23.278;2023-02-26T08:10:15;64611.13;;;16.89;38.90
21879;BME280;27908;42.708;23.278;2023-02-26T08:12:40;64637.41;;;16.92;38.51
21879;BME280;27908;42.708;23.278;2023-02-26T08:15:06;64604.31;;;16.80;38.45
21879;BME280;27908;42.708;23.278;2023-02-26T08:17:32;64660.13;;;16.97;38.13
21879;BME280;27908;42.708;23.278;2023-02-26T08:19:57;64687.47;;;17.01;38.38
21879;BME280;27908;42.708;23.278;2023-02-26T08:22:22;64636.41;;;16.94;38.98
21879;BME280;27908;42.708;23.278;2023-02-26T08:24:48;64631.78;;;16.97;38.34
21879;BME280;27908;42.708;23.278;2023-02-26T08:27:15;64670.53;;;17.07;38.67
21879;BME280;27908;42.708;23.278;2023-02-26T08:29:40;64668.56;;;17.14;38.16
21879;BME280;27908;42.708;23.278;2023-02-26T08:32:07;64716.97;;;17.11;37.62
21879;BME280;27908;42.708;23.278;2023-02-26T08:34:32;64654.56;;;17.08;37.36
21879;BME280;27908;42.708;23.278;2023-02-26T08:36:57;64697.34;;;17.10;38.40
21879;BME280;27908;42.708;23.278;2023-02-26T08:39:23;64696.53;;;17.29;38.65
21879;BME280;27908;42.708;23.278;2023-02-26T08:41:48;64688.31;;;17.28;37.76
21879;BME280;27908;42.708;23.278;2023-02-26T08:44:13;64741.47;;;17.35;37.73
21879;BME280;27908;42.708;23.278;2023-02-26T08:46:39;64736.34;;;17.40;38.29
21879;BME280;27908;42.708;23.278;2023-02-26T08:49:04;64790.06;;;17.49;38.19
21879;BME280;27908;42.708;23.278;2023-02-26T08:51:30;64745.56;;;17.34;37.49
21879;BME280;27908;42.708;23.278;2023-02-26T08:53:55;64777.97;;;17.74;37.38
21879;BME280;27908;42.708;23.278;2023-02-26T08:56:21;64743.72;;;17.54;37.11
21879;BME280;27908;42.708;23.278;2023-02-26T08:58:46;64776.72;;;17.53;36.89
21879;BME280;27908;42.708;23.278;2023-02-26T09:01:12;64775.72;;;17.55;36.59
21879;BME280;27908;42.708;23.278;2023-02-26T09:03:37;64715.84;;;17.49;36.58
21879;BME280;27908;42.708;23.278;2023-02-26T09:06:03;64699.72;;;17.37;36.64
21879;BME280;27908;42.708;23.278;2023-02-26T09:08:30;64746.22;;;17.46;36.95
21879;BME280;27908;42.708;23.278;2023-02-26T09:10:59;64778.81;;;17.55;37.18
21879;BME280;27908;42.708;23.278;2023-02-26T09:13:25;64749.06;;;17.69;36.49
21879;BME280;27908;42.708;23.278;2023-02-26T09:15:51;64831.22;;;17.83;37.14
21879;BME280;27908;42.708;23.278;2023-02-26T09:18:16;64832.03;;;18.08;35.68
21879;BME280;27908;42.708;23.278;2023-02-26T09:20:43;64868.91;;;18.28;36.82
21879;BME280;27908;42.708;23.278;2023-02-26T09:23:09;64947.06;;;18.46;34.62
21879;BME280;27908;42.708;23.278;2023-02-26T09:25:34;64905.75;;;18.46;35.30
21879;BME280;27908;42.708;23.278;2023-02-26T09:27:59;64934.38;;;18.66;35.18
21879;BME280;27908;42.708;23.278;2023-02-26T09:30:25;65044.25;;;18.94;34.04
21879;BME280;27908;42.708;23.278;2023-02-26T09:32:50;65057.34;;;19.06;34.91
21879;BME280;27908;42.708;23.278;2023-02-26T09:35:16;65076.22;;;19.29;33.77
21879;BME280;27908;42.708;23.278;2023-02-26T09:37:41;65052.97;;;19.29;33.17
21879;BME280;27908;42.708;23.278;2023-02-26T09:40:09;65085.72;;;19.43;33.84
21879;BME280;27908;42.708;23.278;2023-02-26T09:45:36;65096.66;;;19.51;33.13
21879;BME280;27908;42.708;23.278;2023-02-26T09:48:04;65095.69;;;19.57;32.77
21879;BME280;27908;42.708;23.278;2023-02-26T09:50:52;65119.88;;;19.46;32.95
21879;BME280;27908;42.708;23.278;2023-02-26T09:53:21;65137.88;;;19.38;33.45
21879;BME280;27908;42.708;23.278;2023-02-26T09:55:49;65113.31;;;19.59;33.09
21879;BME280;27908;42.708;23.278;2023-02-26T09:58:21;65052.88;;;19.22;33.72
21879;BME280;27908;42.708;23.278;2023-02-26T10:01:01;65030.13;;;19.22;34.11
21879;BME280;27908;42.708;23.278;2023-02-26T10:07:11;64985.31;;;18.92;35.31
21879;BME280;27908;42.708;23.278;2023-02-26T10:09:56;65005.06;;;19.01;34.55
21879;BME280;27908;42.708;23.278;2023-02-26T10:12:27;64996.38;;;19.10;35.15
21879;BME280;27908;42.708;23.278;2023-02-26T10:25:26;65087.97;;;19.18;35.15
21879;BME280;27908;42.708;23.278;2023-02-26T10:30:52;64984.53;;;19.13;34.91
21879;BME280;27908;42.708;23.278;2023-02-26T10:33:26;65050.94;;;19.34;35.17
21879;BME280;27908;42.708;23.278;2023-02-26T10:36:04;65093.19;;;19.21;35.02
21879;BME280;27908;42.708;23.278;2023-02-26T10:38:33;65135.41;;;19.46;34.56
21879;BME280;27908;42.708;23.278;2023-02-26T10:41:04;65089.22;;;19.36;35.04
21879;BME280;27908;42.708;23.278;2023-02-26T10:43:34;65095.13;;;19.52;35.50
21879;BME280;27908;42.708;23.278;2023-02-26T10:46:38;65116.66;;;19.38;34.97
21879;BME280;27908;42.708;23.278;2023-02-26T10:51:53;64987.44;;;18.96;36.25
21879;BME280;27908;42.708;23.278;2023-02-26T10:54:33;64983.28;;;18.95;36.25
21879;BME280;27908;42.708;23.278;2023-02-26T10:56:59;65004.81;;;18.81;36.49
21879;BME280;27908;42.708;23.278;2023-02-26T10:59:26;64985.66;;;18.78;36.52
21879;BME280;27908;42.708;23.278;2023-02-26T11:01:52;64928.03;;;18.52;37.27
21879;BME280;27908;42.708;23.278;2023-02-26T11:04:21;64931.75;;;18.63;36.76
21879;BME280;27908;42.708;23.278;2023-02-26T11:06:54;64940.09;;;18.69;36.80
21879;BME280;27908;42.708;23.278;2023-02-26T11:09:31;64968.00;;;18.71;36.95
21879;BME280;27908;42.708;23.278;2023-02-26T11:14:36;64969.72;;;18.85;36.96
21879;BME280;27908;42.708;23.278;2023-02-26T11:17:19;64963.59;;;18.91;36.99
21879;BME280;27908;42.708;23.278;2023-02-26T11:19:58;64956.81;;;18.85;36.47
21879;BME280;27908;42.708;23.278;2023-02-26T11:22:28;64978.31;;;18.68;37.45
21879;BME280;27908;42.708;23.278;2023-02-26T11:24:56;64994.75;;;19.01;38.27
21879;BME280;27908;42.708;23.278;2023-02-26T11:27:30;64983.13;;;18.83;37.17
21879;BME280;27908;42.708;23.278;2023-02-26T11:29:58;64927.28;;;18.79;37.18
21879;BME280;27908;42.708;23.278;2023-02-26T11:32:35;64947.22;;;18.61;37.43
21879;BME280;27908;42.708;23.278;2023-02-26T11:35:01;64886.56;;;18.38;37.57
21879;BME280;27908;42.708;23.278;2023-02-26T11:37:34;64886.03;;;18.37;38.30
21879;BME280;27908;42.708;23.278;2023-02-26T11:40:06;64896.47;;;18.47;38.02
21879;BME280;27908;42.708;23.278;2023-02-26T11:43:02;64893.78;;;18.37;39.10
21879;BME280;27908;42.708;23.278;2023-02-26T11:45:25;64847.97;;;18.06;38.82
21879;BME280;27908;42.708;23.278;2023-02-26T11:48:00;64790.47;;;17.83;38.72
21879;BME280;27908;42.708;23.278;2023-02-26T11:50:28;64818.34;;;17.85;39.56
21879;BME280;27908;42.708;23.278;2023-02-26T11:52:56;64786.22;;;17.72;40.25
21879;BME280;27908;42.708;23.278;2023-02-26T11:55:32;64752.59;;;17.62;40.88
21879;BME280;27908;42.708;23.278;2023-02-26T11:57:58;64757.84;;;17.72;40.15
21879;BME280;27908;42.708;23.278;2023-02-26T12:00:32;64763.44;;;17.65;41.29
21879;BME280;27908;42.708;23.278;2023-02-26T12:03:05;64711.75;;;17.53;41.28
21879;BME280;27908;42.708;23.278;2023-02-26T12:05:32;64796.53;;;17.72;41.08
21879;BME280;27908;42.708;23.278;2023-02-26T12:07:58;64782.16;;;17.78;41.29
21879;BME280;27908;42.708;23.278;2023-02-26T12:11:04;64864.47;;;18.05;40.90
21879;BME280;27908;42.708;23.278;2023-02-26T12:36:09;64759.41;;;17.74;41.57
21879;BME280;27908;42.708;23.278;2023-02-26T12:47:33;64820.56;;;18.00;40.75
21879;BME280;27908;42.708;23.278;2023-02-26T13:04:07;64954.06;;;18.70;40.05
21879;BME280;27908;42.708;23.278;2023-02-26T13:10:09;64897.50;;;18.48;41.23
21879;BME280;27908;42.708;23.278;2023-02-26T13:18:25;64887.94;;;18.22;42.20
21879;BME280;27908;42.708;23.278;2023-02-26T13:20:58;64866.84;;;18.29;42.20
21879;BME280;27908;42.708;23.278;2023-02-26T13:24:09;64841.44;;;18.19;42.08
21879;BME280;27908;42.708;23.278;2023-02-26T13:26:37;64950.75;;;18.11;41.56
21879;BME280;27908;42.708;23.278;2023-02-26T13:29:16;64806.19;;;18.06;41.85
21879;BME280;27908;42.708;23.278;2023-02-26T13:32:09;64857.91;;;18.16;42.55
21879;BME280;27908;42.708;23.278;2023-02-26T13:34:59;64839.19;;;18.03;43.65
21879;BME280;27908;42.708;23.278;2023-02-26T13:37:34;64810.69;;;17.93;43.89
21879;BME280;27908;42.708;23.278;2023-02-26T13:43:40;64895.34;;;18.39;44.42
21879;BME280;27908;42.708;23.278;2023-02-26T13:53:59;64898.06;;;18.51;42.63
21879;BME280;27908;42.708;23.278;2023-02-26T14:01:53;64925.00;;;18.59;42.35
21879;BME280;27908;42.708;23.278;2023-02-26T14:06:47;64986.75;;;18.84;41.56
21879;BME280;27908;42.708;23.278;2023-02-26T14:12:00;65040.94;;;19.18;41.56
21879;BME280;27908;42.708;23.278;2023-02-26T14:14:41;64984.44;;;19.06;40.74
21879;BME280;27908;42.708;23.278;2023-02-26T14:19:43;64965.28;;;18.58;40.84
21879;BME280;27908;42.708;23.278;2023-02-26T14:22:20;64889.16;;;18.38;42.07
21879;BME280;27908;42.708;23.278;2023-02-26T14:30:20;64788.09;;;17.57;43.80
21879;BME280;27908;42.708;23.278;2023-02-26T14:32:48;64771.34;;;17.80;43.33
21879;BME280;27908;42.708;23.278;2023-02-26T14:35:24;64730.41;;;17.61;44.85
21879;BME280;27908;42.708;23.278;2023-02-26T14:38:01;64737.97;;;17.46;44.29
21879;BME280;27908;42.708;23.278;2023-02-26T14:40:30;64671.22;;;17.22;43.40
21879;BME280;27908;42.708;23.278;2023-02-26T14:43:01;64690.75;;;17.16;44.20
21879;BME280;27908;42.708;23.278;2023-02-26T14:45:37;64691.88;;;17.27;43.89
21879;BME280;27908;42.708;23.278;2023-02-26T14:48:06;64654.09;;;17.13;44.46
21879;BME280;27908;42.708;23.278;2023-02-26T15:12:53;64596.94;;;16.64;46.49
21879;BME280;27908;42.708;23.278;2023-02-26T15:15:35;64549.75;;;16.31;48.54
21879;BME280;27908;42.708;23.278;2023-02-26T15:25:45;64452.41;;;15.73;50.72
21879;BME280;27908;42.708;23.278;2023-02-26T15:28:22;64430.34;;;15.74;50.79
21879;BME280;27908;42.708;23.278;2023-02-26T15:30:50;64391.56;;;15.52;51.64
21879;BME280;27908;42.708;23.278;2023-02-26T15:33:17;64398.19;;;15.48;51.56
21879;BME280;27908;42.708;23.278;2023-02-26T15:35:47;64386.34;;;15.44;52.88
21879;BME280;27908;42.708;23.278;2023-02-26T15:38:13;64370.22;;;15.24;52.59
21879;BME280;27908;42.708;23.278;2023-02-26T15:40:39;64332.63;;;15.13;53.37
21879;BME280;27908;42.708;23.278;2023-02-26T15:43:06;64335.75;;;15.21;53.46
21879;BME280;27908;42.708;23.278;2023-02-26T15:45:36;64322.78;;;15.08;54.16
21879;BME280;27908;42.708;23.278;2023-02-26T15:48:16;64323.38;;;15.14;54.15
21879;BME280;27908;42.708;23.278;2023-02-26T15:50:45;64300.75;;;15.12;54.10
21879;BME280;27908;42.708;23.278;2023-02-26T15:53:17;64325.78;;;14.99;54.61
21879;BME280;27908;42.708;23.278;2023-02-26T15:55:49;64262.50;;;14.88;55.25
21879;BME280;27908;42.708;23.278;2023-02-26T15:58:21;64302.59;;;14.92;54.56
21879;BME280;27908;42.708;23.278;2023-02-26T16:00:54;64374.38;;;14.84;54.63
21879;BME280;27908;42.708;23.278;2023-02-26T16:03:32;64291.72;;;14.84;54.43
21879;BME280;27908;42.708;23.278;2023-02-26T16:05:58;64299.41;;;14.81;55.09
21879;BME280;27908;42.708;23.278;2023-02-26T16:08:24;64293.38;;;14.95;54.83
21879;BME280;27908;42.708;23.278;2023-02-26T16:10:51;64269.69;;;14.87;55.77
21879;BME280;27908;42.708;23.278;2023-02-26T16:13:26;64285.53;;;14.80;55.54
21879;BME280;27908;42.708;23.278;2023-02-26T16:15:52;64231.59;;;14.73;56.08
21879;BME280;27908;42.708;23.278;2023-02-26T16:18:23;64250.53;;;14.69;55.94
21879;BME280;27908;42.708;23.278;2023-02-26T16:20:53;64206.75;;;14.52;56.07
21879;BME280;27908;42.708;23.278;2023-02-26T16:23:25;64264.75;;;14.56;56.09
21879;BME280;27908;42.708;23.278;2023-02-26T16:25:57;64227.75;;;14.50;56.42
21879;BME280;27908;42.708;23.278;2023-02-26T16:28:31;64207.22;;;14.50;55.95
21879;BME280;27908;42.708;23.278;2023-02-26T16:31:02;64257.56;;;14.54;56.35